• Join FlightAware (Why Join?)
  • Login
  • US Flag 
01:00PM EDT


 

Airport Tracker/Info


-or-


 

Live Flight TrackerFlight Track Log ✈ N825EG ✈ 29-Aug-2013 ✈ KMGM - 3DW

Flight Track Log - Related Links

Times and Time Zones

All times are in EDT time to prevent confusion due to time zone crossing. See the N825EG flight status page for this flight to view local times or setup timezone preferences in your user account.

Time Position Orientation Groundspeed Altitude Reporting Facility
EDT Latitude Longitude Course Direction KTS MPH feet Rate Location/Type
10:42AM 32.4477 -86.5905 315° West  Level FlightAware Approximate
10:43AM 32.4799 -86.6292 315° West  Level FlightAware Approximate
10:44AM 32.5146 -86.6646 320° Northwest  Level FlightAware Approximate
10:45AM 32.5465 -86.7038 314° West  Level FlightAware Approximate
10:46AM 32.5781 -86.7432 314° West  Level FlightAware Approximate
10:47AM 32.6097 -86.7826 314° West  Level FlightAware Approximate
10:48AM 32.6413 -86.8221 314° West  Level FlightAware Approximate
10:49AM 32.6729 -86.8616 314° West  Level FlightAware Approximate
10:49AM 32.6075 -86.7783 313° West 169 194 7,900  Level Atlanta Center
10:50AM 32.7045 -86.9011 314° West  Level FlightAware Approximate
10:50AM 32.6378 -86.8189 312° West 169 194 7,900  Level Atlanta Center
10:51AM 32.7360 -86.9406 314° West  Level FlightAware Approximate
10:51AM 32.6703 -86.8567 316° Northwest 169 194 7,900  Level Atlanta Center
10:52AM 32.7676 -86.9802 313° West  Level FlightAware Approximate
10:52AM 32.7008 -86.8972 312° West 169 194 7,900  Level Atlanta Center
10:53AM 32.7989 -87.0200 313° West  Level FlightAware Approximate
10:53AM 32.7311 -86.9378 312° West 169 194 7,900  Level Atlanta Center
10:54AM 32.8301 -87.0600 313° West  Level FlightAware Approximate
10:54AM 32.7636 -86.9808 312° West 169 194 8,000  Level Atlanta Center
10:55AM 32.7961 -87.0189 315° West 164 189 8,000  Level Atlanta Center
10:56AM 32.8283 -87.0619 312° West 164 189 8,000  Level Atlanta Center
10:57AM 32.8586 -87.1028 311° West 164 189 8,000  Level Atlanta Center
10:58AM 32.8931 -87.1433 315° West 164 189 8,000  Level Atlanta Center
10:59AM 32.9256 -87.1842 313° West 164 189 8,000  Level Atlanta Center
11:00AM 32.9556 -87.2275 310° West 164 189 8,000  Level Atlanta Center
11:01AM 32.9919 -87.2783 310° West 170 196 8,000  Level Atlanta Center
11:02AM 33.0222 -87.3117 317° Northwest 169 194 8,000 -60 Level Atlanta Center
11:03AM 33.0611 -87.3478 322° Northwest 169 194 7,900 -360 Descending Atlanta Center
11:04AM 33.1019 -87.3789 327° Northwest 174 200 7,300 -540 Descending Atlanta Center
11:05AM 33.1428 -87.4128 325° Northwest 174 200 6,900 -480 Descending Atlanta Center
11:06AM 33.1858 -87.4442 329° Northwest 174 200 6,400 -540 Descending Atlanta Center
11:07AM 33.2203 -87.4803 319° Northwest 174 200 5,900 -300 Descending Atlanta Center
11:08AM 33.2503 -87.5264 308° West 168 193 5,900  Level Atlanta Center
11:10AM 33.3158 -87.6128 312° West 167 192 5,900  Level Memphis Center
11:11AM 33.3481 -87.6567 311° West 168 193 5,900  Level Memphis Center
11:12AM 33.3761 -87.6956 311° West 168 193 5,900  Level Memphis Center
11:13AM 33.4083 -87.7344 315° West 167 192 5,900  Level Memphis Center
11:14AM 33.4406 -87.7806 310° West 168 193 5,900  Level Memphis Center
11:15AM 33.4769 -87.8269 313° West 166 191 5,900  Level Memphis Center
11:16AM 33.5092 -87.8683 313° West 166 191 5,900  Level Memphis Center
11:17AM 33.5369 -87.9100 309° West 166 191 5,900  Level Memphis Center
11:18AM 33.5714 -87.9539 313° West 167 192 5,900  Level Memphis Center
11:19AM 33.5992 -87.9906 312° West 168 193 5,900  Level Memphis Center
11:20AM 33.6292 -88.0319 311° West 168 193 5,900  Level Memphis Center
11:21AM 33.6592 -88.0761 309° West 168 193 5,900  Level Memphis Center
11:22AM 33.6933 -88.1203 313° West 168 193 5,900  Level Memphis Center
11:23AM 33.7253 -88.1594 314° West 168 193 5,900  Level Memphis Center
11:24AM 33.7533 -88.2011 309° West 168 193 5,900  Level Memphis Center
11:25AM 33.7875 -88.2478 311° West 168 193 5,900  Level Memphis Center
11:26AM 33.8194 -88.2894 313° West 167 192 5,900  Level Memphis Center
11:27AM 33.8472 -88.3289 310° West 167 192 5,900  Level Memphis Center
11:28AM 33.8814 -88.3756 311° West 167 192 5,900  Level Memphis Center
11:29AM 33.9133 -88.4147 315° West 167 192 5,900  Level Memphis Center
11:30AM 33.9411 -88.4567 309° West 168 193 5,900  Level Memphis Center
11:31AM 33.9731 -88.4986 313° West 167 192 5,900  Level Memphis Center
11:32AM 33.9922 -88.5283 308° West 167 192 5,900  Level Memphis Center
11:33AM 34.0219 -88.5678 312° West 167 192 5,900  Level Memphis Center
11:34AM 34.0539 -88.6122 311° West 167 192 5,900  Level Memphis Center
11:35AM 34.0858 -88.6542 313° West 167 192 5,900  Level Memphis Center
11:36AM 34.1178 -88.6961 313° West 167 192 5,900  Level Memphis Center
11:37AM 34.1494 -88.7383 312° West 167 192 5,900  Level Memphis Center
11:38AM 34.1794 -88.7806 311° West 167 192 5,900  Level Memphis Center
11:39AM 34.2092 -88.8225 311° West 167 192 5,900  Level Memphis Center
11:40AM 34.2408 -88.8672 311° West 167 192 5,900  Level Memphis Center
11:41AM 34.2728 -88.9069 314° West 162 186 5,900  Level Memphis Center
11:42AM 34.3025 -88.9517 309° West 162 186 5,900  Level Memphis Center
11:43AM 34.3364 -88.9939 314° West 162 186 5,900  Level Memphis Center
11:44AM 34.3661 -89.0386 309° West 162 186 5,900  Level Memphis Center
11:45AM 34.3978 -89.0808 312° West 162 186 5,900  Level Memphis Center
11:46AM 34.4275 -89.1258 309° West 162 186 5,900  Level Memphis Center
11:47AM 34.4592 -89.1681 312° West 167 192 5,900  Level Memphis Center
11:48AM 34.4867 -89.2056 312° West 167 192 5,900  Level Memphis Center
11:49AM 34.5183 -89.2506 311° West 167 192 5,900  Level Memphis Center
11:50AM 34.5500 -89.2931 312° West 167 192 5,900  Level Memphis Center
11:51AM 34.5794 -89.3356 310° West 172 198 5,900  Level Memphis Center
11:52AM 34.6111 -89.3781 312° West 172 198 5,900  Level Memphis Center
11:53AM 34.6428 -89.4231 311° West 172 198 5,900  Level Memphis Center
11:54AM 34.6744 -89.4658 312° West 172 198 5,900  Level Memphis Center
11:55AM 34.7081 -89.5133 311° West 172 198 5,900  Level Memphis Center
11:56AM 34.7397 -89.5586 310° West 172 198 5,900  Level Memphis Center
11:57AM 34.8000 -89.6333 315° West 173 199 5,900  Level KMEM
11:58AM 34.8333 -89.6833 309° West 171 197 5,900  Level KMEM
11:59AM 34.8500 -89.7167 301° West 171 197 5,900  Level KMEM
12:00PM 34.8833 -89.7667 309° West 172 198 5,900  Level KMEM
12:01PM 34.9167 -89.8167 309° West 171 197 5,900  Level KMEM
12:02PM 34.9500 -89.8500 321° Northwest 170 196 5,900  Level KMEM
12:03PM 34.9833 -89.9000 309° West 170 196 5,900  Level KMEM
12:04PM 35.0167 -89.9333 321° Northwest 170 196 5,900  Level KMEM
12:06PM 35.0500 -89.9833 309° West 174 200 5,900  Level KMEM
12:07PM 35.0667 -90.0333 292° West 171 197 5,900  Level KMEM
12:08PM 35.1167 -90.0833 321° Northwest 169 194 5,900  Level KMEM
12:09PM 35.1333 -90.1333 292° West 171 197 5,900  Level KMEM
12:10PM 35.1667 -90.1667 321° Northwest 171 197 5,900  Level KMEM
12:10PM 35.2000 -90.2000 321° Northwest 171 197 5,900  Level KMEM
12:11PM 35.2167 -90.2500 292° West 172 198 5,900  Level KMEM
12:12PM 35.2500 -90.3000 309° West 172 198 5,900  Level KMEM
12:13PM 35.2833 -90.3333 321° Northwest 171 197 5,900  Level KMEM
12:15PM 35.3306 -90.4028 310° West 193 222 5,900  Level Memphis Center
12:16PM 35.3619 -90.4461 312° West 182 209 5,900  Level Memphis Center
12:17PM 35.3933 -90.4919 310° West 175 201 5,900  Level Memphis Center
12:18PM 35.4244 -90.5356 311° West 175 201 5,900  Level Memphis Center
12:19PM 35.4536 -90.5814 308° West 175 201 5,900  Level Memphis Center
12:20PM 35.4847 -90.6272 310° West 175 201 5,900  Level Memphis Center
12:21PM 35.5181 -90.6733 312° West 175 201 5,900  Level Memphis Center
12:22PM 35.5472 -90.7194 308° West 175 201 5,900  Level Memphis Center
12:23PM 35.5783 -90.7628 311° West 175 201 5,900  Level Memphis Center
12:24PM 35.6094 -90.8089 310° West 175 201 5,900  Level Memphis Center
12:25PM 35.6383 -90.8553 307° West 175 201 5,900  Level Memphis Center
12:26PM 35.6675 -90.8961 311° West 175 201 5,900  Level Memphis Center
12:27PM 35.6964 -90.9400 309° West 170 196 5,900  Level Memphis Center
12:28PM 35.7275 -90.9836 311° West 170 196 5,900  Level Memphis Center
12:29PM 35.7586 -91.0272 311° West 170 196 5,900  Level Memphis Center
12:30PM 35.7875 -91.0711 309° West 170 196 5,900  Level Memphis Center
12:31PM 35.8186 -91.1147 311° West 165 190 5,900  Level Memphis Center
12:32PM 35.8453 -91.1586 307° West 165 190 5,900  Level Memphis Center
12:33PM 35.8764 -91.2050 310° West 170 196 5,900  Level Memphis Center
12:34PM 35.9072 -91.2464 313° West 170 196 5,900  Level Memphis Center
12:35PM 35.9342 -91.2928 306° West 170 196 5,900  Level Memphis Center
12:36PM 35.9672 -91.3367 313° West 170 196 5,900  Level Memphis Center
12:37PM 35.9981 -91.3806 311° West 175 201 5,900  Level Memphis Center
12:38PM 36.0247 -91.4247 307° West 175 201 5,900  Level Memphis Center
12:39PM 36.0558 -91.4686 311° West 175 201 5,900  Level Memphis Center
12:40PM 36.0886 -91.5128 313° West 175 201 5,900  Level Memphis Center
12:41PM 36.1153 -91.5569 307° West 170 196 5,900  Level Memphis Center
12:42PM 36.1442 -91.6011 309° West 170 196 5,900  Level Memphis Center
12:43PM 36.1708 -91.6450 307° West 170 196 5,900  Level Memphis Center
12:44PM 36.1994 -91.6867 310° West 161 185 5,900  Level Memphis Center
12:45PM 36.2283 -91.7308 309° West 166 191 5,900  Level Memphis Center
12:46PM 36.2508 -91.7725 304° West 166 191 5,900  Level Memphis Center
12:47PM 36.2814 -91.8167 311° West 166 191 6,000  Climbing Memphis Center
12:48PM 36.3122 -91.8636 309° West 166 191 6,000  Level Memphis Center
12:49PM 36.3431 -91.9081 311° West 166 191 6,000  Level Memphis Center
12:51PM 36.3431 -91.9081 141° Southeast 166 191 6,000 -60 Level Memphis Center
12:53PM 36.4617 -92.0781 311° West 166 191 5,900 -60 Descending Memphis Center
12:54PM 36.4922 -92.1172 314° West 166 191 5,900  Level Memphis Center
12:55PM 36.5208 -92.1619 309° West 166 191 5,900  Level Memphis Center
12:56PM 36.5494 -92.2039 310° West 166 191 5,900  Level Memphis Center
12:57PM 36.5778 -92.2511 307° West 166 191 5,900  Level Memphis Center
12:58PM 36.6064 -92.2931 310° West 166 191 5,900  Level Memphis Center
12:59PM 36.6350 -92.3378 309° West 166 191 5,900  Level Memphis Center
01:00PM 36.6656 -92.3797 312° West 166 191 5,900  Level Memphis Center
01:01PM 36.6919 -92.4269 305° West 161 185 5,900  Level Memphis Center
01:03PM 36.7358 -92.4941 309° West  Level Estimated
01:04PM 36.7692 -92.5403 309° West 166 191 5,900  Level Kansas City Center
01:05PM 36.7972 -92.5853 308° West 166 191 5,900  Level Kansas City Center
01:06PM 36.8267 -92.6297 310° West 165 190 5,900  Level Kansas City Center
01:07PM 36.8550 -92.6739 309° West 165 190 5,900  Level Kansas City Center
01:08PM 36.8892 -92.7267 309° West 163 188 5,900  Level Kansas City Center
01:09PM 36.9178 -92.7717 309° West 164 189 5,900 -180 Level Kansas City Center
01:10PM 36.9464 -92.8158 309° West 163 188 5,600 -480 Descending Kansas City Center
01:11PM 36.9769 -92.8625 309° West 166 191 5,000 -540 Descending Kansas City Center
01:12PM 37.0072 -92.9103 308° West 170 196 4,600 -360 Descending Kansas City Center
01:13PM 37.0369 -92.9589 307° West 173 199 4,300 -300 Descending Kansas City Center
01:14PM 37.0675 -93.0047 310° West 173 199 4,100 -180 Descending Kansas City Center
01:15PM 37.0947 -93.0489 308° West 169 194 4,000 -120 Descending Kansas City Center